createdAt,value
2019-02-23T00:01:24.196Z,44.08
2019-02-23T00:03:50.356Z,41.97
2019-02-23T00:06:16.518Z,42.68
2019-02-23T00:08:42.712Z,43.14
2019-02-23T00:11:08.868Z,41.06
2019-02-23T00:13:35.024Z,42.30
2019-02-23T00:16:01.318Z,42.29
2019-02-23T00:18:27.481Z,42.79
2019-02-23T00:20:53.732Z,42.86
2019-02-23T00:23:19.914Z,41.81
2019-02-23T00:25:46.171Z,41.78
2019-02-23T00:28:12.347Z,42.21
2019-02-23T00:30:38.547Z,42.58
2019-02-23T00:33:04.717Z,43.00
2019-02-23T00:35:30.983Z,44.71
2019-02-23T00:37:57.291Z,43.50
2019-02-23T00:40:23.556Z,43.79
2019-02-23T00:42:49.814Z,44.90
2019-02-23T00:45:15.997Z,43.10
2019-02-23T00:47:42.289Z,43.53
2019-02-23T00:50:08.449Z,42.81
2019-02-23T00:52:34.657Z,43.45
2019-02-23T00:55:00.911Z,43.76
2019-02-23T00:57:27.235Z,44.27
2019-02-23T00:59:53.420Z,45.23
2019-02-23T01:02:19.678Z,45.69
2019-02-23T01:04:45.843Z,45.00
2019-02-23T01:07:12.436Z,46.92
2019-02-23T01:09:38.602Z,46.75
2019-02-23T01:12:04.863Z,45.64
2019-02-23T01:14:31.062Z,45.32
2019-02-23T01:16:57.223Z,43.52
2019-02-23T01:19:23.385Z,47.68
2019-02-23T01:21:49.572Z,45.09
2019-02-23T01:24:15.738Z,44.74
2019-02-23T01:26:41.884Z,45.69
2019-02-23T01:29:08.186Z,44.57
2019-02-23T01:31:34.337Z,44.87
2019-02-23T01:34:00.599Z,44.46
2019-02-23T01:36:26.806Z,42.28
2019-02-23T01:38:53.066Z,42.13
2019-02-23T01:41:19.215Z,43.91
2019-02-23T01:43:45.515Z,43.63
2019-02-23T01:46:11.667Z,46.22
2019-02-23T01:48:37.823Z,45.73
2019-02-23T01:51:04.110Z,46.72
2019-02-23T01:53:30.422Z,44.60
2019-02-23T01:55:56.648Z,43.57
2019-02-23T01:58:22.855Z,44.59
2019-02-23T02:00:49.122Z,45.64
2019-02-23T02:03:15.384Z,42.27
2019-02-23T02:05:41.594Z,41.39
2019-02-23T02:08:07.857Z,43.60
2019-02-23T02:10:34.028Z,43.78
2019-02-23T02:13:00.631Z,44.08
2019-02-23T02:15:26.896Z,44.91
2019-02-23T02:17:54.909Z,43.43
2019-02-23T02:20:21.202Z,44.66
2019-02-23T02:22:47.381Z,42.78
2019-02-23T02:25:13.547Z,42.74
2019-02-23T02:27:39.747Z,46.65
2019-02-23T02:30:08.723Z,44.41
2019-02-23T02:32:34.875Z,44.17
2019-02-23T02:35:01.244Z,44.37
2019-02-23T02:37:27.401Z,46.81
2019-02-23T02:39:53.550Z,47.32
2019-02-23T02:42:19.743Z,45.15
2019-02-23T02:44:45.904Z,46.39
2019-02-23T02:47:12.160Z,47.39
2019-02-23T02:49:38.348Z,46.84
2019-02-23T02:52:04.509Z,47.59
2019-02-23T02:54:30.667Z,45.11
2019-02-23T02:56:56.978Z,43.36
2019-02-23T02:59:23.335Z,46.33
2019-02-23T03:01:49.596Z,44.19
2019-02-23T03:04:15.892Z,44.71
2019-02-23T03:06:42.050Z,45.48
2019-02-23T03:09:10.137Z,45.15
2019-02-23T03:11:36.429Z,45.26
2019-02-23T03:14:03.086Z,46.06
2019-02-23T03:16:29.252Z,44.02
2019-02-23T03:18:55.566Z,41.24
2019-02-23T03:21:21.709Z,40.92
2019-02-23T03:23:47.864Z,42.55
2019-02-23T03:26:14.071Z,41.53
2019-02-23T03:28:40.226Z,42.52
2019-02-23T03:31:06.399Z,42.25
2019-02-23T03:33:32.912Z,41.67
2019-02-23T03:35:59.176Z,42.70
2019-02-23T03:38:25.341Z,42.95
2019-02-23T03:40:51.536Z,40.78
2019-02-23T03:43:17.793Z,40.72
2019-02-23T03:45:43.964Z,41.56
2019-02-23T03:48:10.275Z,41.42
2019-02-23T03:50:48.404Z,39.24
2019-02-23T03:53:04.729Z,39.08
2019-02-23T03:55:30.914Z,39.34
2019-02-23T03:57:57.176Z,38.46
2019-02-23T04:00:23.388Z,38.09
2019-02-23T04:02:49.580Z,38.89
2019-02-23T04:05:15.740Z,37.84
2019-02-23T04:07:41.907Z,38.53
2019-02-23T04:10:08.096Z,37.87
2019-02-23T04:12:34.260Z,36.87
2019-02-23T04:15:00.468Z,36.48
2019-02-23T04:17:26.860Z,36.89
2019-02-23T04:19:53.310Z,36.82
2019-02-23T04:22:19.465Z,36.60
2019-02-23T04:24:45.653Z,36.18
2019-02-23T04:27:11.807Z,35.68
2019-02-23T04:29:37.968Z,35.93
2019-02-23T04:32:04.154Z,35.97
2019-02-23T04:34:30.426Z,36.00
2019-02-23T04:36:56.581Z,36.30
2019-02-23T04:39:22.783Z,36.09
2019-02-23T04:41:49.163Z,36.51
2019-02-23T04:44:15.306Z,36.67
2019-02-23T04:46:41.596Z,37.26
2019-02-23T04:49:07.743Z,38.28
2019-02-23T04:51:33.900Z,37.10
2019-02-23T04:54:00.164Z,37.71
2019-02-23T04:56:26.287Z,38.36
2019-02-23T04:58:52.449Z,37.12
2019-02-23T05:01:18.701Z,36.73
2019-02-23T05:03:44.968Z,38.03
2019-02-23T05:06:11.128Z,36.54
2019-02-23T05:08:37.422Z,35.76
2019-02-23T05:11:03.584Z,34.75
2019-02-23T05:13:34.866Z,34.78
2019-02-23T05:16:01.049Z,34.28
2019-02-23T05:18:27.207Z,33.94
2019-02-23T05:20:53.488Z,33.57
2019-02-23T05:23:19.777Z,34.26
2019-02-23T05:25:45.937Z,33.60
2019-02-23T05:28:12.197Z,32.57
2019-02-23T05:30:38.395Z,33.50
2019-02-23T05:33:04.547Z,33.29
2019-02-23T05:35:30.839Z,35.32
2019-02-23T05:37:57.013Z,34.58
2019-02-23T05:40:23.178Z,34.33
2019-02-23T05:43:00.113Z,34.96
2019-02-23T05:45:17.437Z,33.96
2019-02-23T05:47:43.601Z,34.24
2019-02-23T05:50:09.754Z,34.33
2019-02-23T05:52:35.948Z,34.11
2019-02-23T05:55:02.098Z,34.73
2019-02-23T05:57:28.258Z,32.15
2019-02-23T05:59:54.451Z,32.97
2019-02-23T06:02:21.517Z,33.54
2019-02-23T06:04:47.807Z,33.34
2019-02-23T06:07:13.997Z,32.94
2019-02-23T06:09:40.154Z,32.05
2019-02-23T06:12:06.317Z,31.86
2019-02-23T06:14:32.528Z,32.66
2019-02-23T06:16:58.687Z,32.98
2019-02-23T06:19:24.864Z,31.47
2019-02-23T06:21:54.055Z,32.47
2019-02-23T06:24:19.219Z,31.39
2019-02-23T06:26:45.378Z,31.61
2019-02-23T06:29:11.774Z,31.53
2019-02-23T06:31:37.917Z,32.10
2019-02-23T06:34:15.606Z,31.51
2019-02-23T06:36:32.284Z,30.23
2019-02-23T06:38:58.451Z,30.33
2019-02-23T06:41:24.627Z,31.48
2019-02-23T06:43:50.820Z,30.37
2019-02-23T06:46:16.977Z,32.59
2019-02-23T06:48:43.148Z,32.69
2019-02-23T06:51:09.445Z,31.37
2019-02-23T06:53:35.612Z,30.91
2019-02-23T06:56:01.872Z,30.18
2019-02-23T06:58:28.166Z,29.35
2019-02-23T07:00:54.329Z,29.95
2019-02-23T07:03:20.533Z,29.88
2019-02-23T07:05:47.521Z,29.08
2019-02-23T07:08:13.685Z,27.71
2019-02-23T07:10:39.846Z,27.55
2019-02-23T07:13:06.149Z,27.69
2019-02-23T07:15:32.438Z,27.36
2019-02-23T07:17:58.895Z,28.48
2019-02-23T07:20:25.524Z,26.37
2019-02-23T07:22:51.717Z,26.65
2019-02-23T07:25:17.994Z,25.56
2019-02-23T07:27:44.172Z,24.07
2019-02-23T07:30:12.636Z,24.72
2019-02-23T07:32:38.839Z,26.04
2019-02-23T07:35:05.936Z,25.48
2019-02-23T07:37:32.096Z,24.10
2019-02-23T07:39:58.259Z,25.11
2019-02-23T07:42:24.442Z,24.62
2019-02-23T07:44:50.752Z,26.05
2019-02-23T07:47:16.914Z,26.33
2019-02-23T07:49:43.214Z,27.05
2019-02-23T07:52:09.375Z,26.71
2019-02-23T07:54:35.636Z,27.50
2019-02-23T07:57:01.924Z,27.88
2019-02-23T07:59:28.085Z,28.04
2019-02-23T08:01:54.240Z,26.44
2019-02-23T08:04:20.477Z,25.23
2019-02-23T08:06:46.630Z,26.21
2019-02-23T08:09:12.878Z,25.13
2019-02-23T08:11:39.078Z,28.85
2019-02-23T08:14:05.338Z,28.12
2019-02-23T08:16:31.605Z,28.52
2019-02-23T08:18:59.158Z,28.48
2019-02-23T08:21:25.565Z,27.22
2019-02-23T08:23:51.732Z,26.27
2019-02-23T08:26:18.034Z,27.62
2019-02-23T08:28:44.227Z,27.51
2019-02-23T08:31:10.398Z,26.38
2019-02-23T08:33:36.723Z,26.67
2019-02-23T08:36:02.867Z,25.81
2019-02-23T08:38:29.357Z,26.57
2019-02-23T08:40:55.685Z,27.92
2019-02-23T08:43:21.854Z,28.72
2019-02-23T08:45:48.123Z,28.76
2019-02-23T08:48:14.859Z,28.22
2019-02-23T08:50:41.138Z,28.36
2019-02-23T08:53:07.307Z,28.55
2019-02-23T08:55:33.514Z,27.50
2019-02-23T08:57:59.787Z,27.57
2019-02-23T09:00:25.943Z,28.60
2019-02-23T09:02:52.157Z,28.11
2019-02-23T09:05:18.451Z,26.71
2019-02-23T09:07:44.723Z,27.93
2019-02-23T09:10:12.328Z,27.55
2019-02-23T09:12:38.788Z,26.07
2019-02-23T09:15:06.165Z,26.05
2019-02-23T09:17:50.671Z,25.66
2019-02-23T09:20:28.275Z,25.32
2019-02-23T09:22:44.923Z,23.90
2019-02-23T09:25:11.198Z,28.46
2019-02-23T09:27:37.342Z,27.01
2019-02-23T09:30:06.575Z,26.93
2019-02-23T09:32:32.733Z,28.23
2019-02-23T09:34:58.892Z,28.97
2019-02-23T09:37:25.209Z,30.24
2019-02-23T09:39:51.373Z,29.16
2019-02-23T09:42:17.532Z,30.07
2019-02-23T09:44:43.820Z,29.68
2019-02-23T09:47:09.980Z,29.47
2019-02-23T09:49:36.231Z,27.17
2019-02-23T09:52:02.525Z,24.38
2019-02-23T09:54:30.663Z,25.90
2019-02-23T09:56:57.030Z,27.80
2019-02-23T09:59:23.248Z,28.03
2019-02-23T10:01:49.411Z,27.07
2019-02-23T10:04:17.376Z,28.54
2019-02-23T10:06:45.525Z,29.34
2019-02-23T10:09:11.683Z,27.46
2019-02-23T10:11:37.966Z,27.67
2019-02-23T10:14:04.275Z,27.91
2019-02-23T10:16:30.542Z,27.81
2019-02-23T10:18:56.811Z,27.12
2019-02-23T10:21:23.510Z,29.28
2019-02-23T10:23:49.778Z,29.28
2019-02-23T10:26:18.786Z,29.08
2019-02-23T10:28:44.950Z,29.53
2019-02-23T10:31:11.118Z,30.17
2019-02-23T10:33:47.187Z,29.23
2019-02-23T10:36:05.478Z,30.88
2019-02-23T10:38:31.704Z,30.72
2019-02-23T10:40:59.756Z,28.78
2019-02-23T10:43:26.202Z,27.23
2019-02-23T10:45:52.477Z,28.69
2019-02-23T10:48:18.737Z,28.41
2019-02-23T10:50:44.955Z,28.83
2019-02-23T10:53:11.143Z,29.51
2019-02-23T10:55:37.427Z,29.23
2019-02-23T10:58:03.731Z,25.85
2019-02-23T11:00:30.093Z,27.54
2019-02-23T11:02:57.329Z,28.79
2019-02-23T11:05:23.646Z,28.71
2019-02-23T11:07:49.981Z,28.86
2019-02-23T11:10:17.648Z,27.97
2019-02-23T11:12:43.956Z,27.76
2019-02-23T11:15:11.829Z,28.37
2019-02-23T11:17:38.207Z,29.11
2019-02-23T11:20:06.211Z,29.68
2019-02-23T11:22:32.368Z,27.48
2019-02-23T11:24:58.544Z,28.57
2019-02-23T11:27:24.743Z,26.74
2019-02-23T11:29:50.900Z,26.82
2019-02-23T11:32:17.060Z,28.05
2019-02-23T11:34:43.366Z,27.21
2019-02-23T11:37:09.551Z,28.61
2019-02-23T11:39:35.837Z,28.83
2019-02-23T11:42:02.027Z,29.46
2019-02-23T11:44:28.199Z,28.16
2019-02-23T11:47:01.028Z,28.44
2019-02-23T11:49:23.184Z,29.66
2019-02-23T11:51:50.317Z,29.34
2019-02-23T11:54:16.597Z,30.40
2019-02-23T11:56:42.797Z,29.51
2019-02-23T11:59:08.957Z,30.71
2019-02-23T12:01:35.116Z,31.02
2019-02-23T12:04:01.412Z,31.80
2019-02-23T12:06:27.569Z,30.08
2019-02-23T12:08:57.179Z,30.52
2019-02-23T12:11:22.872Z,28.98
2019-02-23T12:13:49.055Z,31.05
2019-02-23T12:16:15.212Z,31.96
2019-02-23T12:18:41.819Z,31.18
2019-02-23T12:21:12.349Z,31.21
2019-02-23T12:23:38.512Z,32.67
2019-02-23T12:26:04.803Z,32.91
2019-02-23T12:28:31.059Z,31.75
2019-02-23T12:30:57.210Z,31.11
2019-02-23T12:33:23.403Z,32.67
2019-02-23T12:35:49.579Z,33.08
2019-02-23T12:38:15.731Z,30.49
2019-02-23T12:40:42.043Z,30.46
2019-02-23T12:43:08.304Z,29.57
2019-02-23T12:45:34.474Z,29.59
2019-02-23T12:48:00.666Z,30.30
2019-02-23T12:50:26.832Z,30.26
2019-02-23T12:52:53.123Z,29.82
2019-02-23T12:55:19.322Z,29.48
2019-02-23T12:57:45.488Z,30.51
2019-02-23T13:00:37.131Z,31.59
2019-02-23T13:03:03.293Z,32.94
2019-02-23T13:05:29.448Z,32.76
2019-02-23T13:07:55.743Z,30.19
2019-02-23T13:10:21.951Z,32.14
2019-02-23T13:13:10.004Z,32.49
2019-02-23T13:16:02.238Z,33.66
2019-02-23T13:18:50.067Z,32.44
2019-02-23T13:21:35.064Z,30.90
2019-02-23T13:24:28.187Z,29.61
2019-02-23T13:27:11.214Z,30.66
2019-02-23T13:29:57.723Z,31.68
2019-02-23T13:32:27.485Z,31.53
2019-02-23T13:35:15.075Z,30.04
2019-02-23T13:37:50.426Z,31.14
2019-02-23T13:40:38.716Z,31.00
2019-02-23T13:43:31.628Z,31.84
2019-02-23T13:46:04.319Z,30.85
2019-02-23T13:48:42.559Z,28.14
2019-02-23T13:51:36.219Z,27.06
2019-02-23T13:54:39.116Z,27.41
2019-02-23T13:57:21.182Z,29.95
2019-02-23T13:59:50.960Z,30.53
2019-02-23T14:02:36.055Z,30.79
2019-02-23T14:05:14.673Z,30.22
2019-02-23T14:07:47.170Z,32.69
2019-02-23T14:10:43.857Z,32.25
2019-02-23T14:13:30.547Z,34.76
2019-02-23T14:16:21.507Z,34.46
2019-02-23T14:19:06.822Z,33.79
2019-02-23T14:22:01.534Z,34.06
2019-02-23T14:25:07.468Z,32.08
2019-02-23T14:28:11.886Z,32.97
2019-02-23T14:30:59.957Z,32.70
2019-02-23T14:33:53.569Z,32.13
2019-02-23T14:37:08.692Z,34.11
2019-02-23T14:40:13.103Z,32.71
2019-02-23T14:43:12.143Z,32.52
2019-02-23T14:46:15.740Z,32.35
2019-02-23T14:48:48.515Z,33.59
2019-02-23T14:51:34.898Z,32.12
2019-02-23T14:54:16.581Z,32.01
2019-02-23T14:56:56.647Z,32.32
2019-02-23T14:59:26.441Z,33.18
2019-02-23T15:02:15.787Z,33.56
2019-02-23T15:05:00.698Z,34.29
2019-02-23T15:07:53.437Z,35.65
2019-02-23T15:10:42.344Z,34.02
2019-02-23T15:13:23.619Z,33.29
2019-02-23T15:16:17.086Z,33.59
2019-02-23T15:18:51.663Z,34.85
2019-02-23T15:21:26.655Z,33.38
2019-02-23T15:24:11.954Z,32.36
2019-02-23T15:26:59.921Z,32.89
2019-02-23T15:29:38.873Z,32.85
2019-02-23T15:32:47.011Z,32.36
2019-02-23T15:35:25.665Z,32.47
2019-02-23T15:38:01.446Z,32.60
2019-02-23T15:40:37.471Z,33.70
2019-02-23T15:43:17.750Z,34.73
2019-02-23T15:46:24.588Z,34.41
2019-02-23T15:48:57.515Z,32.66
2019-02-23T15:51:24.893Z,33.50
2019-02-23T15:53:52.817Z,33.66
2019-02-23T15:56:19.013Z,33.15
2019-02-23T15:58:45.282Z,32.44
2019-02-23T16:01:14.131Z,32.53
2019-02-23T16:03:40.321Z,31.59
2019-02-23T16:06:06.491Z,32.94
2019-02-23T16:08:32.745Z,34.13
2019-02-23T16:10:59.069Z,34.21
2019-02-23T16:13:25.459Z,32.82
2019-02-23T16:15:51.683Z,31.53
2019-02-23T16:18:17.968Z,32.57
2019-02-23T16:20:44.264Z,33.15
2019-02-23T16:23:10.640Z,32.33
2019-02-23T16:25:38.550Z,33.01
2019-02-23T16:28:04.878Z,32.55
2019-02-23T16:30:31.037Z,32.71
2019-02-23T16:32:57.233Z,32.45
2019-02-23T16:35:23.392Z,32.24
2019-02-23T16:37:49.652Z,32.57
2019-02-23T16:40:15.851Z,31.40
2019-02-23T16:42:42.114Z,32.35
2019-02-23T16:45:08.374Z,32.41
2019-02-23T16:47:34.577Z,32.82
2019-02-23T16:50:02.673Z,32.50
2019-02-23T16:52:28.832Z,32.02
2019-02-23T16:54:56.824Z,33.20
2019-02-23T16:57:22.978Z,32.74
2019-02-23T16:59:49.153Z,33.39
2019-02-23T17:02:15.633Z,33.09
2019-02-23T17:04:53.048Z,32.92
2019-02-23T17:07:09.886Z,33.53
2019-02-23T17:09:36.230Z,34.09
2019-02-23T17:12:02.393Z,33.75
2019-02-23T17:14:28.762Z,32.87
2019-02-23T17:16:55.002Z,33.32
2019-02-23T17:19:21.279Z,33.15
2019-02-23T17:21:47.436Z,32.98
2019-02-23T17:24:13.638Z,32.52
2019-02-23T17:26:39.912Z,33.21
2019-02-23T17:29:06.076Z,32.23
2019-02-23T17:31:32.273Z,32.66
2019-02-23T17:33:58.546Z,32.23
2019-02-23T17:36:24.705Z,32.76
2019-02-23T17:38:51.000Z,33.79
2019-02-23T17:41:17.167Z,33.35
2019-02-23T17:43:43.337Z,31.90
2019-02-23T17:46:09.672Z,32.25
2019-02-23T17:48:35.951Z,33.43
2019-02-23T17:51:02.115Z,32.73
2019-02-23T17:53:28.308Z,32.96
2019-02-23T17:55:54.578Z,32.58
2019-02-23T17:58:20.728Z,34.23
2019-02-23T18:00:47.023Z,32.78
2019-02-23T18:03:13.176Z,32.46
2019-02-23T18:05:39.338Z,33.36
2019-02-23T18:08:05.524Z,34.07
2019-02-23T18:10:31.920Z,33.08
2019-02-23T18:12:58.089Z,33.05
2019-02-23T18:15:24.284Z,32.70
2019-02-23T18:17:51.406Z,33.73
2019-02-23T18:20:18.469Z,33.69
2019-02-23T18:22:44.661Z,33.43
2019-02-23T18:25:10.931Z,32.54
2019-02-23T18:27:37.195Z,33.75
2019-02-23T18:30:12.348Z,31.76
2019-02-23T18:32:34.631Z,33.50
2019-02-23T18:35:00.918Z,33.96
2019-02-23T18:37:27.091Z,33.10
2019-02-23T18:39:53.261Z,32.98
2019-02-23T18:42:19.415Z,34.51
2019-02-23T18:44:45.610Z,33.87
2019-02-23T18:47:11.768Z,33.15
2019-02-23T18:49:37.925Z,33.90
2019-02-23T18:52:04.116Z,33.78
2019-02-23T18:54:30.271Z,32.98
2019-02-23T18:56:56.542Z,32.04
2019-02-23T18:59:22.737Z,33.77
2019-02-23T19:01:48.902Z,34.48
2019-02-23T19:04:15.163Z,33.32
2019-02-23T19:06:41.553Z,33.14
2019-02-23T19:09:07.829Z,33.23
2019-02-23T19:11:33.985Z,34.67
2019-02-23T19:14:00.184Z,33.12
2019-02-23T19:16:26.485Z,33.37
2019-02-23T19:18:52.766Z,33.45
2019-02-23T19:21:19.065Z,34.37
2019-02-23T19:23:45.693Z,34.19
2019-02-23T19:26:11.846Z,32.33
2019-02-23T19:28:43.211Z,32.54
2019-02-23T19:31:06.092Z,32.98
2019-02-23T19:33:32.253Z,32.92
2019-02-23T19:35:58.439Z,35.05
2019-02-23T19:38:24.604Z,33.14
2019-02-23T19:40:50.868Z,33.31
2019-02-23T19:43:17.075Z,32.49
2019-02-23T19:45:43.330Z,33.22
2019-02-23T19:48:09.494Z,31.63
2019-02-23T19:50:39.382Z,31.58
2019-02-23T19:53:05.548Z,32.62
2019-02-23T19:55:31.709Z,32.65
2019-02-23T19:57:57.903Z,32.88
2019-02-23T20:00:24.059Z,31.88
2019-02-23T20:02:50.328Z,32.10
2019-02-23T20:05:16.516Z,32.39
2019-02-23T20:07:42.689Z,32.54
2019-02-23T20:10:09.638Z,32.86
2019-02-23T20:12:35.828Z,32.38
2019-02-23T20:15:02.788Z,31.52
2019-02-23T20:17:28.948Z,31.21
2019-02-23T20:19:55.188Z,31.04
2019-02-23T20:22:21.382Z,31.00
2019-02-23T20:24:47.647Z,32.05
2019-02-23T20:27:13.848Z,31.58
2019-02-23T20:29:40.006Z,31.16
2019-02-23T20:32:06.274Z,31.15
2019-02-23T20:34:32.514Z,31.58
2019-02-23T20:36:58.823Z,31.59
2019-02-23T20:39:25.004Z,30.89
2019-02-23T20:41:51.171Z,30.14
2019-02-23T20:44:17.323Z,30.41
2019-02-23T20:46:43.689Z,30.83
2019-02-23T20:49:09.976Z,30.77
2019-02-23T20:51:36.237Z,30.94
2019-02-23T20:54:02.401Z,30.44
2019-02-23T20:56:28.620Z,31.35
2019-02-23T20:58:54.861Z,31.03
2019-02-23T21:01:21.017Z,31.04
2019-02-23T21:03:47.226Z,31.42
2019-02-23T21:06:13.391Z,31.30
2019-02-23T21:08:39.750Z,30.72
2019-02-23T21:11:06.039Z,31.67
2019-02-23T21:13:32.299Z,31.64
2019-02-23T21:15:58.458Z,31.95
2019-02-23T21:18:24.668Z,31.67
2019-02-23T21:20:51.808Z,31.34
2019-02-23T21:23:17.956Z,31.54
2019-02-23T21:25:44.251Z,31.19
2019-02-23T21:28:10.412Z,31.65
2019-02-23T21:30:36.564Z,31.32
2019-02-23T21:33:02.767Z,30.70
2019-02-23T21:35:28.928Z,30.32
2019-02-23T21:37:57.018Z,29.71
2019-02-23T21:40:23.197Z,32.18
2019-02-23T21:42:57.767Z,31.16
2019-02-23T21:45:23.928Z,32.70
2019-02-23T21:47:50.114Z,32.26
2019-02-23T21:50:16.468Z,33.59
2019-02-23T21:52:42.882Z,31.95
2019-02-23T21:55:09.044Z,31.63
2019-02-23T21:57:35.207Z,31.93
2019-02-23T22:00:01.362Z,32.65
2019-02-23T22:02:27.555Z,32.99
2019-02-23T22:04:53.719Z,31.77
2019-02-23T22:07:19.885Z,32.24
2019-02-23T22:09:46.064Z,32.50
2019-02-23T22:12:12.216Z,31.91
2019-02-23T22:14:38.373Z,31.39
2019-02-23T22:17:04.659Z,31.49
2019-02-23T22:19:30.921Z,31.80
2019-02-23T22:21:57.085Z,30.98
2019-02-23T22:24:23.785Z,31.42
2019-02-23T22:26:50.129Z,32.18
2019-02-23T22:29:16.771Z,32.67
2019-02-23T22:31:44.081Z,31.78
2019-02-23T22:34:10.412Z,33.82
2019-02-23T22:36:36.581Z,33.05
2019-02-23T22:39:04.028Z,32.86
2019-02-23T22:41:30.359Z,32.51
2019-02-23T22:43:56.556Z,32.50
2019-02-23T22:46:22.749Z,33.69
2019-02-23T22:48:49.003Z,34.64
2019-02-23T22:51:16.282Z,33.98
2019-02-23T22:53:42.479Z,35.20
2019-02-23T22:56:08.733Z,33.86
2019-02-23T22:58:34.989Z,34.14
2019-02-23T23:01:02.272Z,34.23
2019-02-23T23:03:28.544Z,33.37
2019-02-23T23:05:54.720Z,33.87
2019-02-23T23:08:20.926Z,34.19
2019-02-23T23:10:47.080Z,34.00
2019-02-23T23:13:13.237Z,35.37
2019-02-23T23:15:39.452Z,33.77
2019-02-23T23:18:05.611Z,32.21
2019-02-23T23:20:31.875Z,34.89
2019-02-23T23:22:58.116Z,33.45
2019-02-23T23:25:24.285Z,35.27
2019-02-23T23:27:50.535Z,34.24
2019-02-23T23:30:16.732Z,35.39
2019-02-23T23:32:42.997Z,34.12
2019-02-23T23:35:09.172Z,33.86
2019-02-23T23:37:35.356Z,33.76
2019-02-23T23:40:01.522Z,33.10
2019-02-23T23:42:27.772Z,32.75
2019-02-23T23:44:53.966Z,33.19
2019-02-23T23:47:20.236Z,32.90
2019-02-23T23:49:46.511Z,32.79
2019-02-23T23:52:12.726Z,32.50
2019-02-23T23:54:38.993Z,32.58
2019-02-23T23:57:05.155Z,33.73
2019-02-23T23:59:31.361Z,33.57
